Boca Raton, FL (33427)

9:12 PM EDT on July 29, 2015 (GMT -0400)
Boca Surf Cam . Com | | Change Station
CLOSE
Current Station
Personal Weather Station
Location: Boca Raton, FL
Elevation: 26 ft
Nearby Weather Stations

Elev 26 ft 26.35 °N, 80.07 °W | Updated 7 minutes ago

Mostly Cloudy
Mostly Cloudy
82.4 °F
Feels Like 86 °F
N
2.2
Wind Variable Wind from SW

Today
High -- | Low -- °F
--% Chance of Precip.
Yesterday
High -- | Low -- °F
Precip. -- in
6:44 AM 8:09 PM
Waxing Gibbous, 97% visible
Pressure 29.99 in
Visibility 10.0 miles
Clouds Clear
Heat Index 86 °F
Dew Point 69 °F
Humidity 64%
Rainfall 0.11 in
Snow Depth Not available.
UV 0 out of 12
Pollen 3.20 out of 12
Air Quality Not available.
Flu Activity Not available.
METAR KPMP 300053Z 31003KT 10SM CLR 28/23 A2999 RMK AO2 SLP156 T02830228

More Conditions Fewer Conditions

Pressure 29.99 in
Visibility 10.0 miles
Clouds Clear
Heat Index 86 °F
Dew Point 69 °F
Humidity 64%
Rainfall 0.11 in
Snow Depth Not available.
UV 0 out of 12
Pollen 3.20 out of 12
Air Quality Not available.
Flu Activity Not available.
METAR KPMP 300053Z 31003KT 10SM CLR 28/23 A2999 RMK AO2 SLP156 T02830228

More Conditions Fewer Conditions

10-Day Weather Forecast

×

Almanac

Astronomy

Jul. 29, 2015 Rise Set
Actual Time
Civil Twilight
Nautical Twilight
Astronomical Twilight
Moon
Length of Visible Light
Length of Day
Tomorrow will be .
, % of the Moon is Illuminated

Today's Extremes

State Highs State Lows

Community

WunderPhotos

Upload Photos

1,842,238 photos uploaded!

WunderBlogs® & News

Nearby

Air Quality

  Air Quality AQ Index Pollutant
Not available.

Snow Depth

Station Depth Elevation

Earthquake Activity

City Distance Mag. Time & Date
Minimum magnitude displayed is 2.5.

Coastal Water Temperatures

Place Temperature

Stations

Nearby Weather Stations

Station Location Temp. Windchill Dew Point Humidity Wind Precip. Elev Updated Type